L'image de la webcam se met à jour toutes les 30s.
La jauge météo se met à jour toutes les 10s d'après les données envoyées par la station météo du club.
Les graphiques se mettent à jour toutes les 5min et ne s'affichent que si la station est en ligne
Surfaces en herbe impraticables
 Largeur réduite sur la bande en dur.Fréquence d'auto-information 119.785
MAJ le 18/02/2024 13:00 DDE
METAR de LFRD (Source NOAA)
LFRD 220800Z AUTO 21014KT 9999 BKN016 BKN022 OVC056 13/12 Q0990 TEMPO 3000 SHRA BKN008 BKN015CB BECMG 22015G30KT

TAF de LFRD (Source NOAA)
TAF LFRD 220500Z 2206/2306 22010KT 9999 BKN020 TEMPO 2206/2208 22015G25KT BKN012 PROB40 TEMPO 2206/2208 3000 RADZ BKN006 BECMG 2208/2210 22015G30KT TEMPO 2208/2211 3000 SHRA BKN008 BKN015CB BECMG 2211/2213 27020G40KT TEMPO 2211/2306 3000 SHRA BKN020CB PROB40 TEMPO 2211/2306 1500 TSRAGS BKN012CB TEMPO 2212/2218 27030G50KT BECMG 2218/2220 24015G30KT TEMPO 2220/2306 26020G40KT
Ayez la webcam en fond d'écran de votre téléphone ou de votre tablette Android avec l'appli du club.